Sea-land Lightning — WDB9986 — position and weather

sailwx.info

Track history (hours):
 
Tides and Currents Weather Stations Pressure Air Temp Water Temp Dewpoint Dewpoint Depression Visibility Wind Speed Wind Dir Waves Ship Positions

Sea-land Lightning

More information available from US FCC via Universal Licensing System.

Last reported at 2014-Sep-14 09:33 UTC. Time now 2014-Sep-17 05:30 UTC.
Position N 34°05' E 134°56'.

Type: Ship (hazmat cat A). MMSI: 303316000.

Date/timePositionNaut miles runAvg speedWind from/ knotsBaromVisibWave heightAir tempDewpointWater temp
2014-Sep-14 09:33N 34°05' E 134°56'1414.1
2014-Sep-14 08:33N 34°19' E 134°59'1717.1
2014-Sep-14 07:33N 34°32' E 135°12'9 9.2
2014-Sep-14 06:33N 34°41' E 135°16'0 0.0
2014-Sep-14 05:16N 34°41' E 135°16'0 0.0
2014-Sep-14 04:28N 34°41' E 135°16'0 0.0
2014-Sep-14 03:28N 34°41' E 135°16'0 0.0
2014-Sep-14 02:28N 34°41' E 135°16'0 0.0
2014-Sep-14 01:28N 34°41' E 135°16'28 7.2
2014-Sep-13 21:33N 34°16' E 134°59'1110.7
2014-Sep-13 20:33N 34°06' E 134°60'1514.1
2014-Sep-13 19:30N 33°51' E 134°59'23713.6
2014-Sep-13 02:04N 34°51' E 139°36'1020.7
2014-Sep-13 01:33N 35°01' E 139°40'1514.7
2014-Sep-13 00:33N 35°15' E 139°46'1010.4
2014-Sep-12 23:33N 35°24' E 139°40'0 0.4
2014-Sep-12 22:31N 35°24' E 139°41'0 0.0
2014-Sep-12 21:31N 35°24' E 139°41'0 0.0
2014-Sep-12 20:31N 35°24' E 139°41'0 0.0
2014-Sep-12 19:31N 35°24' E 139°41'0 0.0
2014-Sep-12 18:31N 35°24' E 139°41'0 0.0
2014-Sep-12 17:31N 35°24' E 139°41'0 0.0
2014-Sep-12 16:31N 35°24' E 139°41'0 0.0
2014-Sep-12 15:31N 35°24' E 139°41'0 0.0
2014-Sep-12 14:31N 35°24' E 139°41'0 0.0
2014-Sep-12 13:31N 35°24' E 139°41'3 3.2
2014-Sep-12 12:33N 35°21' E 139°42'10 9.7
2014-Sep-12 11:33N 35°12' E 139°47'7 7.4
2014-Sep-12 10:33N 35°05' E 139°45'1110.7
2014-Sep-12 09:33N 34°54' E 139°43'1211.8
2014-Sep-12 08:33N 34°50' E 139°56'1413.7
2014-Sep-12 07:33N 34°55' E 140°11'1612.8
2014-Sep-12 06:16N 35°04' E 140°28'1013.5
2014-Sep-12 05:33N 35°09' E 140°38'1413.3
2014-Sep-12 04:29N 35°17' E 140°53'  
Track history (hours):
 
Tides and Currents Weather Stations Pressure Air Temp Water Temp Dewpoint Dewpoint Depression Visibility Wind Speed Wind Dir Waves Ship Positions

Sea-land Lightning

More information available from US FCC via Universal Licensing System.

Last reported at 2014-Sep-14 09:33 UTC. Time now 2014-Sep-17 05:30 UTC.
Position N 34°05' E 134°56'.

Type: Ship (hazmat cat A). MMSI: 303316000.

Date/timePositionNaut miles runAvg speedWind from/ knotsBaromVisibWave heightAir tempDewpointWater temp
2014-Sep-14 09:33N 34°05' E 134°56'1414.1
2014-Sep-14 08:33N 34°19' E 134°59'1717.1
2014-Sep-14 07:33N 34°32' E 135°12'9 9.2
2014-Sep-14 06:33N 34°41' E 135°16'0 0.0
2014-Sep-14 05:16N 34°41' E 135°16'0 0.0
2014-Sep-14 04:28N 34°41' E 135°16'0 0.0
2014-Sep-14 03:28N 34°41' E 135°16'0 0.0
2014-Sep-14 02:28N 34°41' E 135°16'0 0.0
2014-Sep-14 01:28N 34°41' E 135°16'28 7.2
2014-Sep-13 21:33N 34°16' E 134°59'1110.7
2014-Sep-13 20:33N 34°06' E 134°60'1514.1
2014-Sep-13 19:30N 33°51' E 134°59'23713.6
2014-Sep-13 02:04N 34°51' E 139°36'1020.7
2014-Sep-13 01:33N 35°01' E 139°40'1514.7
2014-Sep-13 00:33N 35°15' E 139°46'1010.4
2014-Sep-12 23:33N 35°24' E 139°40'0 0.4
2014-Sep-12 22:31N 35°24' E 139°41'0 0.0
2014-Sep-12 21:31N 35°24' E 139°41'0 0.0
2014-Sep-12 20:31N 35°24' E 139°41'0 0.0
2014-Sep-12 19:31N 35°24' E 139°41'0 0.0
2014-Sep-12 18:31N 35°24' E 139°41'0 0.0
2014-Sep-12 17:31N 35°24' E 139°41'0 0.0
2014-Sep-12 16:31N 35°24' E 139°41'0 0.0
2014-Sep-12 15:31N 35°24' E 139°41'0 0.0
2014-Sep-12 14:31N 35°24' E 139°41'0 0.0
2014-Sep-12 13:31N 35°24' E 139°41'3 3.2
2014-Sep-12 12:33N 35°21' E 139°42'10 9.7
2014-Sep-12 11:33N 35°12' E 139°47'7 7.4
2014-Sep-12 10:33N 35°05' E 139°45'1110.7
2014-Sep-12 09:33N 34°54' E 139°43'1211.8
2014-Sep-12 08:33N 34°50' E 139°56'1413.7
2014-Sep-12 07:33N 34°55' E 140°11'1612.8
2014-Sep-12 06:16N 35°04' E 140°28'1013.5
2014-Sep-12 05:33N 35°09' E 140°38'1413.3
2014-Sep-12 04:29N 35°17' E 140°53'  

Dump ship's entire track history